sensor_id;sensor_type;location;lat;lon;timestamp;P1;durP1;ratioP1;P2;durP2;ratioP2
17935;SDS011;9093;52.062;4.508;2023-04-15T09:33:53;4.18;;;2.08;;
17935;SDS011;9093;52.062;4.508;2023-04-15T09:39:25;5.22;;;2.95;;
17935;SDS011;9093;52.062;4.508;2023-04-15T09:42:06;5.45;;;2.42;;
17935;SDS011;9093;52.062;4.508;2023-04-15T09:44:47;5.85;;;2.35;;
17935;SDS011;9093;52.062;4.508;2023-04-15T09:47:30;5.13;;;2.75;;
17935;SDS011;9093;52.062;4.508;2023-04-15T09:50:11;3.60;;;2.45;;
17935;SDS011;9093;52.062;4.508;2023-04-15T09:52:51;3.67;;;2.15;;
17935;SDS011;9093;52.062;4.508;2023-04-15T09:55:31;5.85;;;2.42;;
17935;SDS011;9093;52.062;4.508;2023-04-15T09:58:22;5.07;;;2.67;;
17935;SDS011;9093;52.062;4.508;2023-04-15T10:01:03;3.47;;;1.95;;
17935;SDS011;9093;52.062;4.508;2023-04-15T10:03:48;6.28;;;2.25;;
17935;SDS011;9093;52.062;4.508;2023-04-15T10:06:29;7.30;;;2.47;;
17935;SDS011;9093;52.062;4.508;2023-04-15T10:09:10;3.28;;;1.95;;
17935;SDS011;9093;52.062;4.508;2023-04-15T10:11:51;5.18;;;2.10;;
17935;SDS011;9093;52.062;4.508;2023-04-15T10:14:32;3.03;;;1.88;;
17935;SDS011;9093;52.062;4.508;2023-04-15T10:17:20;4.18;;;1.70;;
17935;SDS011;9093;52.062;4.508;2023-04-15T10:20:02;4.43;;;1.90;;
17935;SDS011;9093;52.062;4.508;2023-04-15T10:22:52;2.45;;;1.85;;
17935;SDS011;9093;52.062;4.508;2023-04-15T10:25:33;7.45;;;2.08;;
17935;SDS011;9093;52.062;4.508;2023-04-15T10:28:17;3.85;;;2.03;;
17935;SDS011;9093;52.062;4.508;2023-04-15T10:30:58;5.93;;;1.90;;
17935;SDS011;9093;52.062;4.508;2023-04-15T10:33:40;4.07;;;2.10;;
17935;SDS011;9093;52.062;4.508;2023-04-15T10:36:22;3.15;;;1.85;;
17935;SDS011;9093;52.062;4.508;2023-04-15T10:39:05;2.83;;;1.65;;
17935;SDS011;9093;52.062;4.508;2023-04-15T10:42:13;4.68;;;1.80;;
17935;SDS011;9093;52.062;4.508;2023-04-15T10:44:55;4.00;;;1.50;;
17935;SDS011;9093;52.062;4.508;2023-04-15T10:47:39;11.13;;;2.38;;
17935;SDS011;9093;52.062;4.508;2023-04-15T10:50:19;4.70;;;2.50;;
17935;SDS011;9093;52.062;4.508;2023-04-15T10:53:03;7.38;;;2.13;;
17935;SDS011;9093;52.062;4.508;2023-04-15T10:55:44;2.92;;;1.60;;
17935;SDS011;9093;52.062;4.508;2023-04-15T10:58:24;4.38;;;1.92;;
17935;SDS011;9093;52.062;4.508;2023-04-15T11:01:05;3.60;;;2.22;;
17935;SDS011;9093;52.062;4.508;2023-04-15T11:03:46;3.22;;;1.90;;
17935;SDS011;9093;52.062;4.508;2023-04-15T11:06:42;3.25;;;1.75;;
17935;SDS011;9093;52.062;4.508;2023-04-15T11:09:30;4.47;;;2.17;;
17935;SDS011;9093;52.062;4.508;2023-04-15T11:12:12;4.05;;;2.25;;
17935;SDS011;9093;52.062;4.508;2023-04-15T11:14:52;3.35;;;2.00;;
17935;SDS011;9093;52.062;4.508;2023-04-15T11:17:32;5.05;;;2.20;;
17935;SDS011;9093;52.062;4.508;2023-04-15T11:20:16;4.30;;;1.90;;
17935;SDS011;9093;52.062;4.508;2023-04-15T11:22:57;3.08;;;2.17;;
17935;SDS011;9093;52.062;4.508;2023-04-15T11:25:37;3.22;;;1.75;;
17935;SDS011;9093;52.062;4.508;2023-04-15T11:28:18;2.47;;;1.70;;
17935;SDS011;9093;52.062;4.508;2023-04-15T11:31:02;4.47;;;1.90;;
17935;SDS011;9093;52.062;4.508;2023-04-15T11:33:53;4.65;;;1.80;;
17935;SDS011;9093;52.062;4.508;2023-04-15T11:36:41;3.95;;;1.88;;
17935;SDS011;9093;52.062;4.508;2023-04-15T11:39:22;3.50;;;1.75;;
17935;SDS011;9093;52.062;4.508;2023-04-15T11:42:15;9.23;;;1.58;;
17935;SDS011;9093;52.062;4.508;2023-04-15T11:45:14;2.70;;;1.50;;
17935;SDS011;9093;52.062;4.508;2023-04-15T11:47:59;3.80;;;2.08;;
17935;SDS011;9093;52.062;4.508;2023-04-15T11:50:51;3.70;;;1.80;;
17935;SDS011;9093;52.062;4.508;2023-04-15T11:53:37;4.85;;;2.20;;
17935;SDS011;9093;52.062;4.508;2023-04-15T11:56:20;2.85;;;1.88;;
17935;SDS011;9093;52.062;4.508;2023-04-15T11:59:02;3.50;;;1.63;;
17935;SDS011;9093;52.062;4.508;2023-04-15T12:01:43;4.05;;;1.95;;
17935;SDS011;9093;52.062;4.508;2023-04-15T12:04:25;4.32;;;2.40;;
17935;SDS011;9093;52.062;4.508;2023-04-15T12:07:05;11.77;;;2.42;;
17935;SDS011;9093;52.062;4.508;2023-04-15T12:09:53;2.42;;;1.67;;
17935;SDS011;9093;52.062;4.508;2023-04-15T12:12:34;2.65;;;1.88;;
17935;SDS011;9093;52.062;4.508;2023-04-15T12:15:14;8.32;;;1.90;;
17935;SDS011;9093;52.062;4.508;2023-04-15T12:17:55;3.88;;;1.65;;
17935;SDS011;9093;52.062;4.508;2023-04-15T12:20:42;2.90;;;1.98;;
17935;SDS011;9093;52.062;4.508;2023-04-15T12:23:26;4.28;;;1.60;;
17935;SDS011;9093;52.062;4.508;2023-04-15T12:26:06;4.63;;;1.58;;
17935;SDS011;9093;52.062;4.508;2023-04-15T12:28:49;3.15;;;1.90;;
17935;SDS011;9093;52.062;4.508;2023-04-15T12:32:13;4.97;;;1.80;;
17935;SDS011;9093;52.062;4.508;2023-04-15T12:34:50;5.05;;;1.40;;
17935;SDS011;9093;52.062;4.508;2023-04-15T12:37:34;3.17;;;1.83;;
17935;SDS011;9093;52.062;4.508;2023-04-15T12:40:14;2.38;;;1.15;;
17935;SDS011;9093;52.062;4.508;2023-04-15T12:42:55;3.08;;;1.30;;
17935;SDS011;9093;52.062;4.508;2023-04-15T12:45:39;2.00;;;1.08;;
17935;SDS011;9093;52.062;4.508;2023-04-15T12:48:19;3.80;;;1.58;;
17935;SDS011;9093;52.062;4.508;2023-04-15T12:50:59;3.05;;;1.30;;
17935;SDS011;9093;52.062;4.508;2023-04-15T12:53:42;6.85;;;1.88;;
17935;SDS011;9093;52.062;4.508;2023-04-15T12:56:22;2.53;;;1.37;;
17935;SDS011;9093;52.062;4.508;2023-04-15T12:59:05;8.52;;;2.17;;
17935;SDS011;9093;52.062;4.508;2023-04-15T13:01:46;4.88;;;1.80;;
17935;SDS011;9093;52.062;4.508;2023-04-15T13:04:27;6.78;;;1.98;;
17935;SDS011;9093;52.062;4.508;2023-04-15T13:07:09;2.92;;;1.63;;
17935;SDS011;9093;52.062;4.508;2023-04-15T13:09:49;4.00;;;2.15;;
17935;SDS011;9093;52.062;4.508;2023-04-15T13:12:30;3.53;;;1.50;;
17935;SDS011;9093;52.062;4.508;2023-04-15T13:15:11;2.92;;;1.48;;
17935;SDS011;9093;52.062;4.508;2023-04-15T13:17:52;3.88;;;1.45;;
17935;SDS011;9093;52.062;4.508;2023-04-15T13:20:32;4.47;;;1.50;;
17935;SDS011;9093;52.062;4.508;2023-04-15T13:23:13;3.05;;;1.50;;
17935;SDS011;9093;52.062;4.508;2023-04-15T13:25:54;1.83;;;1.42;;
17935;SDS011;9093;52.062;4.508;2023-04-15T13:28:34;2.30;;;1.30;;
17935;SDS011;9093;52.062;4.508;2023-04-15T13:31:15;2.78;;;1.60;;
17935;SDS011;9093;52.062;4.508;2023-04-15T13:33:56;2.45;;;1.30;;
17935;SDS011;9093;52.062;4.508;2023-04-15T13:36:39;1.30;;;1.10;;
17935;SDS011;9093;52.062;4.508;2023-04-15T13:39:19;8.63;;;1.80;;
17935;SDS011;9093;52.062;4.508;2023-04-15T13:42:02;3.50;;;1.50;;
17935;SDS011;9093;52.062;4.508;2023-04-15T13:44:42;6.13;;;1.73;;
17935;SDS011;9093;52.062;4.508;2023-04-15T13:47:23;7.72;;;1.80;;
17935;SDS011;9093;52.062;4.508;2023-04-15T13:50:03;3.97;;;1.55;;
17935;SDS011;9093;52.062;4.508;2023-04-15T13:52:50;3.30;;;1.20;;
17935;SDS011;9093;52.062;4.508;2023-04-15T13:55:30;6.88;;;2.03;;
17935;SDS011;9093;52.062;4.508;2023-04-15T14:00:54;1.98;;;1.20;;
17935;SDS011;9093;52.062;4.508;2023-04-15T14:03:34;4.22;;;1.63;;
17935;SDS011;9093;52.062;4.508;2023-04-15T14:06:15;8.82;;;1.65;;
17935;SDS011;9093;52.062;4.508;2023-04-15T14:08:55;5.05;;;1.70;;
17935;SDS011;9093;52.062;4.508;2023-04-15T14:11:39;6.65;;;1.60;;
17935;SDS011;9093;52.062;4.508;2023-04-15T14:14:28;6.35;;;1.35;;
17935;SDS011;9093;52.062;4.508;2023-04-15T14:17:08;8.82;;;2.05;;
17935;SDS011;9093;52.062;4.508;2023-04-15T14:19:49;5.72;;;1.58;;
17935;SDS011;9093;52.062;4.508;2023-04-15T14:22:29;7.85;;;1.50;;
17935;SDS011;9093;52.062;4.508;2023-04-15T14:25:10;6.00;;;1.13;;
17935;SDS011;9093;52.062;4.508;2023-04-15T14:27:50;5.85;;;1.65;;
17935;SDS011;9093;52.062;4.508;2023-04-15T14:30:30;4.35;;;1.50;;
17935;SDS011;9093;52.062;4.508;2023-04-15T14:33:11;1.98;;;1.25;;
17935;SDS011;9093;52.062;4.508;2023-04-15T14:35:51;2.28;;;1.27;;
17935;SDS011;9093;52.062;4.508;2023-04-15T14:38:34;3.92;;;1.58;;
17935;SDS011;9093;52.062;4.508;2023-04-15T14:41:19;4.40;;;1.50;;
17935;SDS011;9093;52.062;4.508;2023-04-15T14:43:59;5.25;;;1.35;;
17935;SDS011;9093;52.062;4.508;2023-04-15T14:46:39;4.85;;;1.35;;
17935;SDS011;9093;52.062;4.508;2023-04-15T14:49:20;11.57;;;1.83;;
17935;SDS011;9093;52.062;4.508;2023-04-15T14:52:00;2.40;;;1.50;;
17935;SDS011;9093;52.062;4.508;2023-04-15T14:54:41;4.15;;;1.95;;
17935;SDS011;9093;52.062;4.508;2023-04-15T14:57:24;5.95;;;1.63;;
17935;SDS011;9093;52.062;4.508;2023-04-15T15:00:04;4.60;;;1.45;;
17935;SDS011;9093;52.062;4.508;2023-04-15T15:02:48;7.50;;;1.55;;
17935;SDS011;9093;52.062;4.508;2023-04-15T15:05:29;4.60;;;1.58;;
17935;SDS011;9093;52.062;4.508;2023-04-15T15:08:09;3.78;;;1.58;;
17935;SDS011;9093;52.062;4.508;2023-04-15T15:10:50;5.95;;;2.00;;
17935;SDS011;9093;52.062;4.508;2023-04-15T15:16:14;6.50;;;1.52;;
17935;SDS011;9093;52.062;4.508;2023-04-15T15:18:54;4.10;;;1.30;;
17935;SDS011;9093;52.062;4.508;2023-04-15T15:21:34;6.00;;;1.42;;
17935;SDS011;9093;52.062;4.508;2023-04-15T15:24:15;6.07;;;1.45;;
17935;SDS011;9093;52.062;4.508;2023-04-15T15:26:55;6.47;;;1.67;;
17935;SDS011;9093;52.062;4.508;2023-04-15T15:29:36;7.10;;;1.70;;
17935;SDS011;9093;52.062;4.508;2023-04-15T15:32:17;3.40;;;1.40;;
17935;SDS011;9093;52.062;4.508;2023-04-15T15:34:57;3.50;;;1.67;;
17935;SDS011;9093;52.062;4.508;2023-04-15T15:37:38;2.90;;;1.30;;
17935;SDS011;9093;52.062;4.508;2023-04-15T15:40:19;2.08;;;1.10;;
17935;SDS011;9093;52.062;4.508;2023-04-15T15:43:00;4.45;;;2.03;;
17935;SDS011;9093;52.062;4.508;2023-04-15T15:45:40;7.90;;;1.38;;
17935;SDS011;9093;52.062;4.508;2023-04-15T15:48:24;4.68;;;1.40;;
17935;SDS011;9093;52.062;4.508;2023-04-15T15:51:04;3.25;;;1.58;;
17935;SDS011;9093;52.062;4.508;2023-04-15T15:53:45;4.70;;;1.38;;
17935;SDS011;9093;52.062;4.508;2023-04-15T15:56:25;3.22;;;1.45;;
17935;SDS011;9093;52.062;4.508;2023-04-15T15:59:06;6.45;;;1.70;;
17935;SDS011;9093;52.062;4.508;2023-04-15T16:01:46;3.28;;;1.15;;
17935;SDS011;9093;52.062;4.508;2023-04-15T16:04:27;1.70;;;1.08;;
17935;SDS011;9093;52.062;4.508;2023-04-15T16:07:08;3.58;;;1.40;;
17935;SDS011;9093;52.062;4.508;2023-04-15T16:09:49;4.87;;;1.27;;
17935;SDS011;9093;52.062;4.508;2023-04-15T16:12:29;5.20;;;1.20;;
17935;SDS011;9093;52.062;4.508;2023-04-15T16:15:10;3.85;;;1.38;;
17935;SDS011;9093;52.062;4.508;2023-04-15T16:17:51;2.67;;;1.20;;
17935;SDS011;9093;52.062;4.508;2023-04-15T16:20:31;2.53;;;1.20;;
17935;SDS011;9093;52.062;4.508;2023-04-15T16:23:13;3.65;;;1.50;;
17935;SDS011;9093;52.062;4.508;2023-04-15T16:25:55;4.88;;;1.38;;
17935;SDS011;9093;52.062;4.508;2023-04-15T16:28:36;4.05;;;1.42;;
17935;SDS011;9093;52.062;4.508;2023-04-15T16:31:16;8.05;;;1.90;;
17935;SDS011;9093;52.062;4.508;2023-04-15T16:33:59;6.32;;;1.58;;
17935;SDS011;9093;52.062;4.508;2023-04-15T16:36:40;4.85;;;1.52;;
17935;SDS011;9093;52.062;4.508;2023-04-15T16:39:20;2.20;;;1.05;;
17935;SDS011;9093;52.062;4.508;2023-04-15T16:42:02;5.00;;;1.80;;
17935;SDS011;9093;52.062;4.508;2023-04-15T16:44:43;1.75;;;1.05;;
17935;SDS011;9093;52.062;4.508;2023-04-15T16:47:23;7.72;;;1.00;;
17935;SDS011;9093;52.062;4.508;2023-04-15T16:50:06;1.85;;;1.38;;
17935;SDS011;9093;52.062;4.508;2023-04-15T16:52:47;8.80;;;1.65;;
17935;SDS011;9093;52.062;4.508;2023-04-15T16:55:27;3.55;;;1.27;;
17935;SDS011;9093;52.062;4.508;2023-04-15T16:58:07;3.60;;;0.95;;
17935;SDS011;9093;52.062;4.508;2023-04-15T17:00:49;5.45;;;1.45;;
17935;SDS011;9093;52.062;4.508;2023-04-15T17:03:30;12.30;;;1.23;;
17935;SDS011;9093;52.062;4.508;2023-04-15T17:06:10;6.03;;;0.90;;
17935;SDS011;9093;52.062;4.508;2023-04-15T17:08:51;1.42;;;1.05;;
17935;SDS011;9093;52.062;4.508;2023-04-15T17:11:31;8.52;;;1.10;;
17935;SDS011;9093;52.062;4.508;2023-04-15T17:14:11;1.60;;;1.00;;
17935;SDS011;9093;52.062;4.508;2023-04-15T17:16:52;3.10;;;1.10;;
17935;SDS011;9093;52.062;4.508;2023-04-15T17:19:32;3.65;;;1.17;;
17935;SDS011;9093;52.062;4.508;2023-04-15T17:22:12;8.77;;;1.00;;
17935;SDS011;9093;52.062;4.508;2023-04-15T17:24:53;4.47;;;1.00;;
17935;SDS011;9093;52.062;4.508;2023-04-15T17:27:33;5.20;;;1.10;;
17935;SDS011;9093;52.062;4.508;2023-04-15T17:30:14;6.30;;;0.90;;
17935;SDS011;9093;52.062;4.508;2023-04-15T17:32:55;2.50;;;1.13;;
17935;SDS011;9093;52.062;4.508;2023-04-15T17:35:35;1.73;;;0.80;;
17935;SDS011;9093;52.062;4.508;2023-04-15T17:38:17;5.07;;;1.27;;
17935;SDS011;9093;52.062;4.508;2023-04-15T17:40:58;5.20;;;1.30;;
17935;SDS011;9093;52.062;4.508;2023-04-15T17:43:39;1.98;;;0.77;;
17935;SDS011;9093;52.062;4.508;2023-04-15T17:46:19;1.92;;;0.90;;
17935;SDS011;9093;52.062;4.508;2023-04-15T17:49:00;3.53;;;1.02;;
17935;SDS011;9093;52.062;4.508;2023-04-15T17:51:40;5.88;;;1.42;;
17935;SDS011;9093;52.062;4.508;2023-04-15T17:54:21;6.28;;;1.10;;
17935;SDS011;9093;52.062;4.508;2023-04-15T17:57:01;2.10;;;0.80;;
17935;SDS011;9093;52.062;4.508;2023-04-15T17:59:42;1.95;;;0.73;;
17935;SDS011;9093;52.062;4.508;2023-04-15T18:02:23;4.43;;;1.13;;
17935;SDS011;9093;52.062;4.508;2023-04-15T18:05:04;2.20;;;0.90;;
17935;SDS011;9093;52.062;4.508;2023-04-15T18:07:45;1.27;;;0.70;;
17935;SDS011;9093;52.062;4.508;2023-04-15T18:10:25;3.60;;;0.95;;
17935;SDS011;9093;52.062;4.508;2023-04-15T18:13:06;1.42;;;0.80;;
17935;SDS011;9093;52.062;4.508;2023-04-15T18:15:49;7.35;;;0.88;;
17935;SDS011;9093;52.062;4.508;2023-04-15T18:18:30;0.93;;;0.65;;
17935;SDS011;9093;52.062;4.508;2023-04-15T18:21:10;3.72;;;1.08;;
17935;SDS011;9093;52.062;4.508;2023-04-15T18:23:50;7.03;;;1.20;;
17935;SDS011;9093;52.062;4.508;2023-04-15T18:26:31;9.57;;;1.35;;
17935;SDS011;9093;52.062;4.508;2023-04-15T18:29:11;5.45;;;1.10;;
17935;SDS011;9093;52.062;4.508;2023-04-15T18:31:52;4.68;;;1.30;;
17935;SDS011;9093;52.062;4.508;2023-04-15T18:34:32;2.67;;;0.70;;
17935;SDS011;9093;52.062;4.508;2023-04-15T18:37:13;5.68;;;1.10;;
17935;SDS011;9093;52.062;4.508;2023-04-15T18:39:53;4.03;;;0.85;;
17935;SDS011;9093;52.062;4.508;2023-04-15T18:42:34;2.47;;;1.02;;
17935;SDS011;9093;52.062;4.508;2023-04-15T18:45:14;6.32;;;1.10;;
17935;SDS011;9093;52.062;4.508;2023-04-15T18:47:55;6.25;;;0.82;;
17935;SDS011;9093;52.062;4.508;2023-04-15T18:50:35;4.03;;;0.75;;
17935;SDS011;9093;52.062;4.508;2023-04-15T18:53:19;2.20;;;0.90;;
17935;SDS011;9093;52.062;4.508;2023-04-15T18:56:00;2.90;;;0.82;;
17935;SDS011;9093;52.062;4.508;2023-04-15T18:58:42;2.50;;;1.00;;
17935;SDS011;9093;52.062;4.508;2023-04-15T19:01:22;8.20;;;0.95;;
17935;SDS011;9093;52.062;4.508;2023-04-15T19:04:03;3.42;;;0.88;;
17935;SDS011;9093;52.062;4.508;2023-04-15T19:06:43;2.05;;;0.65;;
17935;SDS011;9093;52.062;4.508;2023-04-15T19:09:23;4.13;;;1.25;;
17935;SDS011;9093;52.062;4.508;2023-04-15T19:12:04;4.20;;;0.70;;
17935;SDS011;9093;52.062;4.508;2023-04-15T19:14:44;4.60;;;1.13;;
17935;SDS011;9093;52.062;4.508;2023-04-15T19:17:28;2.78;;;1.02;;
17935;SDS011;9093;52.062;4.508;2023-04-15T19:20:08;6.22;;;0.88;;
17935;SDS011;9093;52.062;4.508;2023-04-15T19:22:48;2.90;;;0.80;;
17935;SDS011;9093;52.062;4.508;2023-04-15T19:25:32;2.08;;;0.77;;
17935;SDS011;9093;52.062;4.508;2023-04-15T19:28:12;2.80;;;0.90;;
17935;SDS011;9093;52.062;4.508;2023-04-15T19:30:53;4.07;;;0.85;;
17935;SDS011;9093;52.062;4.508;2023-04-15T19:33:33;2.95;;;0.98;;
17935;SDS011;9093;52.062;4.508;2023-04-15T19:36:13;1.55;;;0.60;;
17935;SDS011;9093;52.062;4.508;2023-04-15T19:39:00;0.68;;;0.60;;
17935;SDS011;9093;52.062;4.508;2023-04-15T19:41:41;6.55;;;1.02;;
17935;SDS011;9093;52.062;4.508;2023-04-15T19:44:23;7.60;;;1.48;;
17935;SDS011;9093;52.062;4.508;2023-04-15T19:47:03;1.38;;;0.60;;
17935;SDS011;9093;52.062;4.508;2023-04-15T19:49:44;4.18;;;0.80;;
17935;SDS011;9093;52.062;4.508;2023-04-15T19:52:24;6.32;;;0.90;;
17935;SDS011;9093;52.062;4.508;2023-04-15T19:55:05;7.55;;;0.93;;
17935;SDS011;9093;52.062;4.508;2023-04-15T19:57:45;5.75;;;1.10;;
17935;SDS011;9093;52.062;4.508;2023-04-15T20:00:26;1.50;;;0.88;;
17935;SDS011;9093;52.062;4.508;2023-04-15T20:03:06;0.75;;;0.63;;
17935;SDS011;9093;52.062;4.508;2023-04-15T20:05:46;1.80;;;0.90;;
17935;SDS011;9093;52.062;4.508;2023-04-15T20:08:27;2.17;;;1.10;;
17935;SDS011;9093;52.062;4.508;2023-04-15T20:11:10;0.80;;;0.63;;
17935;SDS011;9093;52.062;4.508;2023-04-15T20:13:51;3.20;;;0.80;;
17935;SDS011;9093;52.062;4.508;2023-04-15T20:16:31;2.90;;;0.70;;
17935;SDS011;9093;52.062;4.508;2023-04-15T20:19:13;10.50;;;1.38;;
17935;SDS011;9093;52.062;4.508;2023-04-15T20:21:54;5.97;;;1.05;;
17935;SDS011;9093;52.062;4.508;2023-04-15T20:24:35;1.35;;;0.70;;
17935;SDS011;9093;52.062;4.508;2023-04-15T20:27:15;2.20;;;1.00;;
17935;SDS011;9093;52.062;4.508;2023-04-15T20:29:56;1.00;;;0.60;;
17935;SDS011;9093;52.062;4.508;2023-04-15T20:32:36;1.40;;;0.77;;
17935;SDS011;9093;52.062;4.508;2023-04-15T20:35:17;2.63;;;0.73;;
17935;SDS011;9093;52.062;4.508;2023-04-15T20:38:01;3.42;;;0.93;;
17935;SDS011;9093;52.062;4.508;2023-04-15T20:40:44;4.20;;;0.82;;
17935;SDS011;9093;52.062;4.508;2023-04-15T20:43:25;9.23;;;0.93;;
17935;SDS011;9093;52.062;4.508;2023-04-15T20:46:05;5.25;;;1.00;;
17935;SDS011;9093;52.062;4.508;2023-04-15T20:48:46;2.78;;;0.75;;
17935;SDS011;9093;52.062;4.508;2023-04-15T20:51:33;2.10;;;0.55;;
17935;SDS011;9093;52.062;4.508;2023-04-15T20:54:16;4.13;;;0.75;;
17935;SDS011;9093;52.062;4.508;2023-04-15T20:56:58;0.95;;;0.65;;
17935;SDS011;9093;52.062;4.508;2023-04-15T20:59:40;1.70;;;0.63;;
17935;SDS011;9093;52.062;4.508;2023-04-15T21:02:23;3.30;;;0.93;;
17935;SDS011;9093;52.062;4.508;2023-04-15T21:05:03;2.97;;;0.90;;
17935;SDS011;9093;52.062;4.508;2023-04-15T21:07:44;3.13;;;0.80;;
17935;SDS011;9093;52.062;4.508;2023-04-15T21:10:25;2.33;;;0.70;;
17935;SDS011;9093;52.062;4.508;2023-04-15T21:13:05;4.35;;;0.80;;
17935;SDS011;9093;52.062;4.508;2023-04-15T21:15:46;2.45;;;0.77;;
17935;SDS011;9093;52.062;4.508;2023-04-15T21:18:29;4.38;;;0.80;;
17935;SDS011;9093;52.062;4.508;2023-04-15T21:21:09;2.90;;;0.70;;
17935;SDS011;9093;52.062;4.508;2023-04-15T21:23:49;3.05;;;1.00;;
17935;SDS011;9093;52.062;4.508;2023-04-15T21:26:30;5.35;;;0.68;;
17935;SDS011;9093;52.062;4.508;2023-04-15T21:29:10;2.35;;;0.63;;
17935;SDS011;9093;52.062;4.508;2023-04-15T21:31:50;5.40;;;1.00;;
17935;SDS011;9093;52.062;4.508;2023-04-15T21:34:31;0.85;;;0.60;;
17935;SDS011;9093;52.062;4.508;2023-04-15T21:37:11;3.70;;;1.02;;
17935;SDS011;9093;52.062;4.508;2023-04-15T21:39:51;2.70;;;0.80;;
17935;SDS011;9093;52.062;4.508;2023-04-15T21:42:32;3.72;;;0.60;;
17935;SDS011;9093;52.062;4.508;2023-04-15T21:45:18;9.18;;;1.08;;
17935;SDS011;9093;52.062;4.508;2023-04-15T21:47:59;0.90;;;0.70;;
17935;SDS011;9093;52.062;4.508;2023-04-15T21:50:40;2.42;;;0.63;;
17935;SDS011;9093;52.062;4.508;2023-04-15T21:53:20;3.30;;;1.30;;
17935;SDS011;9093;52.062;4.508;2023-04-15T21:56:00;1.02;;;0.57;;
17935;SDS011;9093;52.062;4.508;2023-04-15T21:58:41;7.10;;;0.93;;
17935;SDS011;9093;52.062;4.508;2023-04-15T22:01:22;4.10;;;0.70;;
17935;SDS011;9093;52.062;4.508;2023-04-15T22:04:02;3.55;;;0.70;;
17935;SDS011;9093;52.062;4.508;2023-04-15T22:06:47;2.75;;;0.70;;
17935;SDS011;9093;52.062;4.508;2023-04-15T22:09:28;1.25;;;0.75;;
17935;SDS011;9093;52.062;4.508;2023-04-15T22:12:08;1.25;;;0.73;;
17935;SDS011;9093;52.062;4.508;2023-04-15T22:14:48;0.80;;;0.63;;
17935;SDS011;9093;52.062;4.508;2023-04-15T22:17:29;0.65;;;0.65;;
17935;SDS011;9093;52.062;4.508;2023-04-15T22:20:09;2.00;;;0.85;;
17935;SDS011;9093;52.062;4.508;2023-04-15T22:22:50;1.73;;;0.65;;
17935;SDS011;9093;52.062;4.508;2023-04-15T22:25:30;1.48;;;0.88;;
17935;SDS011;9093;52.062;4.508;2023-04-15T22:28:11;1.58;;;0.77;;
17935;SDS011;9093;52.062;4.508;2023-04-15T22:30:51;4.20;;;0.80;;
17935;SDS011;9093;52.062;4.508;2023-04-15T22:33:33;5.03;;;0.80;;
17935;SDS011;9093;52.062;4.508;2023-04-15T22:38:56;0.53;;;0.50;;
17935;SDS011;9093;52.062;4.508;2023-04-15T22:41:37;1.95;;;0.80;;
17935;SDS011;9093;52.062;4.508;2023-04-15T22:44:17;2.00;;;0.83;;
17935;SDS011;9093;52.062;4.508;2023-04-15T22:46:57;1.98;;;0.80;;
17935;SDS011;9093;52.062;4.508;2023-04-15T22:49:37;5.82;;;0.70;;
17935;SDS011;9093;52.062;4.508;2023-04-15T22:52:18;7.45;;;1.00;;
17935;SDS011;9093;52.062;4.508;2023-04-15T22:54:59;8.23;;;1.45;;
17935;SDS011;9093;52.062;4.508;2023-04-15T22:57:40;3.30;;;0.65;;
17935;SDS011;9093;52.062;4.508;2023-04-15T23:00:20;2.67;;;0.98;;
17935;SDS011;9093;52.062;4.508;2023-04-15T23:03:00;3.20;;;1.08;;
17935;SDS011;9093;52.062;4.508;2023-04-15T23:05:41;6.60;;;0.80;;
17935;SDS011;9093;52.062;4.508;2023-04-15T23:08:21;7.80;;;1.00;;
17935;SDS011;9093;52.062;4.508;2023-04-15T23:11:03;2.30;;;1.05;;
17935;SDS011;9093;52.062;4.508;2023-04-15T23:13:43;1.10;;;0.85;;
17935;SDS011;9093;52.062;4.508;2023-04-15T23:16:24;2.30;;;0.90;;
17935;SDS011;9093;52.062;4.508;2023-04-15T23:19:04;1.75;;;0.73;;
17935;SDS011;9093;52.062;4.508;2023-04-15T23:21:45;2.73;;;1.00;;
17935;SDS011;9093;52.062;4.508;2023-04-15T23:24:25;2.53;;;1.00;;
17935;SDS011;9093;52.062;4.508;2023-04-15T23:27:05;1.58;;;0.95;;
17935;SDS011;9093;52.062;4.508;2023-04-15T23:29:46;3.83;;;1.02;;
17935;SDS011;9093;52.062;4.508;2023-04-15T23:32:26;6.43;;;1.30;;
17935;SDS011;9093;52.062;4.508;2023-04-15T23:35:06;4.60;;;1.50;;
17935;SDS011;9093;52.062;4.508;2023-04-15T23:37:47;4.57;;;1.48;;
17935;SDS011;9093;52.062;4.508;2023-04-15T23:40:27;3.40;;;1.57;;
17935;SDS011;9093;52.062;4.508;2023-04-15T23:43:11;9.73;;;2.00;;
17935;SDS011;9093;52.062;4.508;2023-04-15T23:45:51;2.88;;;1.63;;
17935;SDS011;9093;52.062;4.508;2023-04-15T23:48:31;11.68;;;1.65;;
17935;SDS011;9093;52.062;4.508;2023-04-15T23:51:12;17.17;;;1.73;;
17935;SDS011;9093;52.062;4.508;2023-04-15T23:53:52;8.55;;;1.55;;
17935;SDS011;9093;52.062;4.508;2023-04-15T23:56:32;5.95;;;1.73;;
17935;SDS011;9093;52.062;4.508;2023-04-15T23:59:13;4.15;;;1.48;;
